Hovedside
METAR-TAF:

METAR-TAF

Lufthavner :

Oljeplattform

Goeree Le, Nederland

breddegrad: 51-55-33N, lengdegrad: 3-40-12E, høyde over havet: 19 m

Gjeldene værobservasjon

Denne rapporten ble laget for 33 minutter siden, klokken 18:25 UTC
Vind 33 kt fra Sør
Temperatur 6°C
Luftfuktighet 87%
Trykk 986 hPa
Sikt 10 km eller mer

METAR: EHSC 121825Z AUTO 17033KT 9999 ///////// 06/04 Q0986 W08/H15

Tid: 19:58 (18:58 UTC)


TAF: fraværende

Værobservasjoner og værvarsel for over 4000 flyplasser (METAR- og TAF-rapporter).

Tilgjengelige stasjoner er representert av de røde og gule prikkene på kartet.

Hold musepekeren over prikken for å se navnet på stasjonen.

Klikk så for å se værobservasjoner og -varsler.

For å forandre kartet kan du klikke på den grønne knappen med svart kryss for å zoome inn, på den grønne knappen med strek for å zoome ut, eller på de grønne pilene for å se tilstøtende kart.


METAR-TAF: